Time;durP1;ratioP1;P1;durP2;ratioP2;P2;SDS_P1;SDS_P2;PMS_P1;PMS_P2;Temp;Humidity;BMP_temperature;BMP_pressure;BME280_temperature;BME280_humidity;BME280_pressure;Samples;Min_cycle;Max_cycle;Signal;HPM_P1;HPM_P2
2024/02/08 00:01:59;;;;;;;4.20;2.45;;;;;;;1.46;100.00;97369.81;15287174;19;20106;-59
2024/02/08 00:07:26;;;;;;;4.63;2.60;;;;;;;1.46;100.00;97363.66;15283907;19;20018;-63
2024/02/08 00:12:51;;;;;;;3.45;2.50;;;;;;;1.48;100.00;97359.88;15283477;19;20029;-63
2024/02/08 00:18:18;;;;;;;4.20;2.53;;;;;;;1.49;100.00;97369.53;15289323;19;20082;-60
2024/02/08 00:23:47;;;;;;;4.03;2.70;;;;;;;1.52;100.00;97363.13;15284800;19;20094;-64
2024/02/08 00:29:18;;;;;;;3.55;2.50;;;;;;;1.55;100.00;97362.84;15284454;19;20010;-61
2024/02/08 00:34:42;;;;;;;4.10;2.88;;;;;;;1.57;100.00;97349.47;15275926;19;20359;-64
2024/02/08 00:40:10;;;;;;;3.92;2.80;;;;;;;1.60;100.00;97359.81;15285119;19;20486;-63
2024/02/08 00:45:34;;;;;;;5.22;2.88;;;;;;;1.61;100.00;97350.88;15281647;19;20070;-62
2024/02/08 00:50:59;;;;;;;4.85;2.75;;;;;;;1.61;100.00;97357.03;15282584;19;20082;-63
2024/02/08 00:56:26;;;;;;;3.20;2.80;;;;;;;1.61;100.00;97358.84;15281862;19;20082;-64
2024/02/08 01:01:51;;;;;;;3.08;2.72;;;;;;;1.64;100.00;97350.63;15280632;19;20019;-64
2024/02/08 01:07:22;;;;;;;4.43;3.03;;;;;;;1.66;100.00;97352.16;15286085;19;20022;-64
2024/02/08 01:12:50;;;;;;;4.78;2.78;;;;;;;1.66;100.00;97344.19;15275384;19;20018;-62
2024/02/08 01:18:17;;;;;;;4.13;3.03;;;;;;;1.66;100.00;97335.41;15279306;19;20014;-64
2024/02/08 01:23:46;;;;;;;3.45;2.80;;;;;;;1.66;100.00;97340.72;15285870;19;20274;-62
2024/02/08 01:29:14;;;;;;;3.65;3.30;;;;;;;1.66;100.00;97338.88;15282927;19;20035;-64
2024/02/08 01:34:40;;;;;;;3.28;2.97;;;;;;;1.69;100.00;97327.19;15276599;19;20022;-62
2024/02/08 01:40:06;;;;;;;3.97;3.38;;;;;;;1.71;100.00;97322.56;15282025;19;20067;-61
2024/02/08 01:45:37;;;;;;;4.37;3.47;;;;;;;1.74;100.00;97314.34;15022526;19;5001599;-63
2024/02/08 01:51:11;;;;;;;4.72;3.40;;;;;;;1.78;100.00;97309.59;15278897;19;20291;-64
2024/02/08 01:56:36;;;;;;;5.00;3.50;;;;;;;1.78;100.00;97304.28;15281272;19;20029;-63
2024/02/08 02:02:07;;;;;;;6.20;3.60;;;;;;;1.80;100.00;97294.38;15278997;19;20011;-65
2024/02/08 02:07:35;;;;;;;7.03;3.60;;;;;;;1.82;100.00;97279.16;15277927;19;20052;-63
2024/02/08 02:13:01;;;;;;;5.15;3.70;;;;;;;1.81;100.00;97278.31;15279382;19;20351;-63
2024/02/08 02:18:28;;;;;;;4.20;3.80;;;;;;;1.82;100.00;97269.34;15286404;19;20046;-61
2024/02/08 02:23:57;;;;;;;4.10;3.70;;;;;;;1.83;100.00;97271.03;15281590;19;20079;-64
2024/02/08 02:29:23;;;;;;;4.50;3.75;;;;;;;1.84;100.00;97272.72;15297164;19;20015;-63
2024/02/08 02:34:51;;;;;;;5.82;4.03;;;;;;;1.84;100.00;97258.63;15289006;19;20023;-65
2024/02/08 02:40:22;;;;;;;5.05;4.00;;;;;;;1.82;100.00;97253.41;15296728;19;20018;-63
2024/02/08 02:45:47;;;;;;;4.13;3.45;;;;;;;1.82;100.00;97257.91;15292715;19;20074;-63
2024/02/08 02:51:12;;;;;;;4.70;3.83;;;;;;;1.78;100.00;97261.78;15294273;19;20018;-63
2024/02/08 02:56:47;;;;;;;5.38;3.50;;;;;;;1.75;100.00;97246.97;15293642;19;20048;-64
2024/02/08 03:02:12;;;;;;;5.22;3.95;;;;;;;1.77;100.00;97239.72;15322862;19;20018;-64
2024/02/08 03:07:42;;;;;;;4.35;3.38;;;;;;;1.78;100.00;97246.72;15283067;19;20019;-64
2024/02/08 03:13:10;;;;;;;4.03;3.63;;;;;;;1.80;100.00;97249.22;15289847;19;20022;-64
2024/02/08 03:18:38;;;;;;;3.75;3.28;;;;;;;1.74;100.00;97247.97;15294904;19;20011;-64
2024/02/08 03:24:07;;;;;;;4.68;3.90;;;;;;;1.76;100.00;97245.19;15288369;19;20629;-63
2024/02/08 03:29:35;;;;;;;4.90;3.80;;;;;;;1.78;100.00;97233.44;15293977;19;20782;-64
2024/02/08 03:35:00;;;;;;;5.60;4.03;;;;;;;1.82;100.00;97240.16;15281142;19;20014;-63
2024/02/08 03:40:28;;;;;;;4.65;3.63;;;;;;;1.82;100.00;97245.47;15284988;19;20773;-63
2024/02/08 03:45:56;;;;;;;6.28;3.50;;;;;;;1.84;100.00;97232.06;15284457;19;20014;-63
2024/02/08 03:51:22;;;;;;;5.13;3.90;;;;;;;1.88;100.00;97240.59;15288372;19;20023;-63
2024/02/08 03:56:51;;;;;;;7.10;3.60;;;;;;;1.84;100.00;97238.19;15287896;19;20785;-62
2024/02/08 04:02:21;;;;;;;4.38;3.60;;;;;;;1.85;100.00;97229.25;15288720;19;20022;-62
2024/02/08 04:08:02;;;;;;;4.82;3.97;;;;;;;1.84;100.00;97243.50;15287697;19;20086;-60
2024/02/08 04:58:36;;;;;;;5.25;4.60;;;;;;;1.79;100.00;97234.28;15283804;19;20113;-62
2024/02/08 05:04:03;;;;;;;8.07;4.90;;;;;;;1.80;100.00;97233.28;15285506;19;20026;-63
2024/02/08 05:09:39;;;;;;;7.95;4.90;;;;;;;1.77;100.00;97229.09;15285751;19;20022;-60
2024/02/08 05:15:06;;;;;;;7.05;5.13;;;;;;;1.75;100.00;97216.94;15283005;19;20020;-61
2024/02/08 05:20:31;;;;;;;7.50;5.60;;;;;;;1.74;100.00;97213.44;15285310;19;20019;-62
2024/02/08 05:25:58;;;;;;;8.15;5.60;;;;;;;1.73;100.00;97227.69;15289156;19;20018;-61
2024/02/08 05:31:25;;;;;;;10.45;5.80;;;;;;;1.71;100.00;97220.84;15277188;19;20612;-60
2024/02/08 05:36:52;;;;;;;9.52;6.22;;;;;;;1.68;100.00;97211.34;15284735;19;20018;-61
2024/02/08 05:42:21;;;;;;;10.88;6.78;;;;;;;1.70;100.00;97209.41;15282523;19;20021;-60
2024/02/08 05:47:48;;;;;;;10.27;7.13;;;;;;;1.73;100.00;97222.38;15275005;19;20015;-59
2024/02/08 05:53:15;;;;;;;12.40;7.13;;;;;;;1.78;100.00;97219.31;15278638;19;20039;-61
2024/02/08 05:58:44;;;;;;;11.68;7.25;;;;;;;1.78;100.00;97219.31;15282006;19;20025;-61
2024/02/08 06:04:09;;;;;;;10.98;7.70;;;;;;;1.78;100.00;97209.53;15292147;19;20022;-62
2024/02/08 06:09:47;;;;;;;12.63;8.32;;;;;;;1.82;100.00;97231.34;15292074;19;20018;-62
2024/02/08 06:15:24;;;;;;;13.38;8.00;;;;;;;1.84;100.00;97235.53;15294193;19;20042;-61
2024/02/08 06:20:51;;;;;;;11.88;7.88;;;;;;;1.84;100.00;97248.00;15291406;19;20023;-62
2024/02/08 06:26:31;;;;;;;16.08;8.57;;;;;;;1.85;100.00;97223.13;15301319;19;20018;-60
2024/02/08 06:32:23;;;;;;;15.00;9.77;;;;;;;1.85;100.00;97225.78;15288697;19;20252;-59
2024/02/08 06:37:56;;;;;;;13.30;9.53;;;;;;;1.85;100.00;97225.78;15292501;19;20105;-64
2024/02/08 06:43:44;;;;;;;16.08;8.82;;;;;;;1.88;100.00;97240.59;10470842;19;10001631;-59
2024/02/08 07:40:26;;;;;;;16.42;9.63;;;;;;;2.02;100.00;97250.84;15292846;19;20013;-50
2024/02/08 07:45:55;;;;;;;18.52;9.80;;;;;;;2.06;100.00;97251.41;15291313;19;20018;-54
2024/02/08 07:51:23;;;;;;;15.93;9.32;;;;;;;2.10;100.00;97263.44;15296562;19;20805;-51
2024/02/08 07:56:54;;;;;;;15.35;9.38;;;;;;;2.09;100.00;97270.56;15286867;19;20023;-49
2024/02/08 08:02:23;;;;;;;18.00;8.82;;;;;;;2.10;100.00;97274.91;15283854;19;20015;-50
2024/02/08 08:07:59;;;;;;;19.10;9.35;;;;;;;2.14;100.00;97281.63;15288058;19;20082;-52
2024/02/08 08:13:50;;;;;;;16.40;9.02;;;;;;;2.17;100.00;97285.00;15285730;19;20023;-53
2024/02/08 08:19:19;;;;;;;14.27;9.13;;;;;;;2.20;100.00;97282.03;15287089;19;20011;-54
2024/02/08 08:25:00;;;;;;;14.27;8.32;;;;;;;2.24;100.00;97278.97;15287936;19;20014;-53
2024/02/08 08:30:38;;;;;;;13.48;8.48;;;;;;;2.27;100.00;97292.00;15287945;19;20365;-54
2024/02/08 08:36:20;;;;;;;10.90;7.38;;;;;;;2.26;100.00;97298.28;15280349;19;20094;-56
2024/02/08 08:41:47;;;;;;;14.10;8.10;;;;;;;2.27;100.00;97284.03;15280835;19;20018;-53
2024/02/08 08:47:15;;;;;;;15.23;8.68;;;;;;;2.30;100.00;97278.44;15280710;19;20356;-53
2024/02/08 08:52:47;;;;;;;14.77;8.45;;;;;;;2.38;100.00;97275.09;15283578;19;20033;-53
2024/02/08 08:58:12;;;;;;;15.10;7.85;;;;;;;2.40;100.00;97281.13;15284603;19;20351;-52
2024/02/08 09:03:55;;;;;;;12.65;7.45;;;;;;;2.42;100.00;97273.81;15279138;19;20487;-50
2024/02/08 09:09:54;;;;;;;13.55;7.80;;;;;;;2.46;100.00;97282.38;15286285;19;20031;-54
2024/02/08 09:15:26;;;;;;;13.38;7.47;;;;;;;2.49;100.00;97291.91;15285015;19;20022;-54
2024/02/08 09:20:53;;;;;;;14.20;7.47;;;;;;;2.52;100.00;97286.31;15280525;19;20453;-53
2024/02/08 09:26:24;;;;;;;17.30;7.45;;;;;;;2.54;100.00;97294.97;15284572;19;20014;-52
2024/02/08 09:31:49;;;;;;;16.92;7.63;;;;;;;2.59;100.00;97284.75;15279236;19;20014;-50
2024/02/08 09:37:17;;;;;;;14.77;7.78;;;;;;;2.65;100.00;97264.75;15279934;19;20014;-55
2024/02/08 09:42:54;;;;;;;15.38;7.30;;;;;;;2.76;100.00;97253.97;15274880;19;20038;-53
2024/02/08 09:48:37;;;;;;;12.00;6.78;;;;;;;2.85;100.00;97244.31;15281329;19;20014;-54
2024/02/08 09:54:15;;;;;;;10.70;6.70;;;;;;;2.99;100.00;97251.88;15280116;19;20021;-54
2024/02/08 10:05:48;;;;;;;9.18;5.38;;;;;;;3.11;100.00;97249.03;15275333;19;20015;-51
2024/02/08 10:11:23;;;;;;;6.20;4.10;;;;;;;3.16;100.00;97236.13;14766439;19;10000323;-50
2024/02/08 10:16:50;;;;;;;6.13;4.13;;;;;;;3.20;100.00;97249.00;15282212;19;20021;-49
2024/02/08 10:22:26;;;;;;;7.13;4.63;;;;;;;3.29;100.00;97228.66;15019648;19;5001585;-50
2024/02/08 10:28:02;;;;;;;9.02;4.95;;;;;;;3.32;100.00;97215.09;15278306;19;20014;-53
2024/02/08 10:33:35;;;;;;;4.82;3.90;;;;;;;3.39;100.00;97204.69;15274545;19;20559;-50
2024/02/08 10:39:23;;;;;;;5.63;4.30;;;;;;;3.48;100.00;97201.16;15275864;19;20630;-52
2024/02/08 10:44:52;;;;;;;5.68;3.95;;;;;;;3.60;100.00;97191.13;15278886;19;20367;-53
2024/02/08 10:50:27;;;;;;;4.85;3.85;;;;;;;3.72;100.00;97173.13;15295171;19;20018;-53
2024/02/08 10:55:59;;;;;;;4.47;3.45;;;;;;;3.83;100.00;97156.09;15294309;19;20057;-54
2024/02/08 11:01:53;;;;;;;5.47;4.25;;;;;;;3.95;100.00;97141.56;15296543;19;20035;-50
2024/02/08 11:07:22;;;;;;;5.13;3.92;;;;;;;4.07;100.00;97130.69;15285007;19;20029;-53
2024/02/08 11:12:48;;;;;;;4.03;3.35;;;;;;;4.20;100.00;97123.16;15290203;19;20021;-54
2024/02/08 11:18:33;;;;;;;3.92;3.42;;;;;;;4.35;100.00;97115.44;15297111;19;20025;-50
2024/02/08 11:24:01;;;;;;;6.45;3.75;;;;;;;4.43;100.00;97104.00;15289471;19;20017;-54
2024/02/08 11:29:27;;;;;;;4.28;3.67;;;;;;;4.46;100.00;97109.88;15290996;19;20065;-53
2024/02/08 11:35:00;;;;;;;5.28;4.00;;;;;;;4.49;100.00;97098.06;15283831;19;20025;-53
2024/02/08 11:40:36;;;;;;;5.43;3.90;;;;;;;4.49;100.00;97074.06;15293770;19;20777;-51
2024/02/08 11:46:10;;;;;;;4.90;4.25;;;;;;;4.47;100.00;97054.72;15287574;19;20035;-54
2024/02/08 11:51:40;;;;;;;5.20;4.15;;;;;;;4.46;100.00;97063.69;15295315;19;20014;-52
2024/02/08 11:57:06;;;;;;;6.70;4.68;;;;;;;4.48;100.00;97067.88;15279544;19;20114;-51
2024/02/08 12:02:35;;;;;;;4.40;3.63;;;;;;;4.46;100.00;97056.56;15290372;19;20023;-51
2024/02/08 12:08:18;;;;;;;4.57;3.40;;;;;;;4.48;100.00;97043.88;15282409;19;20017;-52
2024/02/08 12:13:58;;;;;;;4.10;3.42;;;;;;;4.58;100.00;97046.44;15285492;19;20242;-54
2024/02/08 12:19:37;;;;;;;4.70;3.80;;;;;;;4.66;100.00;97034.13;15288660;19;20023;-50
2024/02/08 12:25:07;;;;;;;4.85;4.20;;;;;;;4.75;100.00;97025.22;15288596;19;20019;-53
2024/02/08 12:30:36;;;;;;;4.73;4.03;;;;;;;4.80;100.00;97022.88;15289715;19;20017;-51
2024/02/08 12:36:01;;;;;;;5.40;4.50;;;;;;;4.86;100.00;97005.41;15287180;19;20018;-53
2024/02/08 12:41:38;;;;;;;6.57;4.68;;;;;;;4.95;100.00;96999.09;15281188;19;20027;-54
2024/02/08 12:47:06;;;;;;;4.78;4.25;;;;;;;4.98;100.00;97003.28;15281950;19;20035;-50
2024/02/08 12:52:30;;;;;;;4.72;4.20;;;;;;;4.96;100.00;97000.75;15285390;19;20015;-50
2024/02/08 12:58:04;;;;;;;4.78;4.28;;;;;;;4.94;100.00;96982.25;15281940;19;20014;-51
2024/02/08 13:03:28;;;;;;;5.63;4.68;;;;;;;4.97;100.00;96964.25;15278633;19;20020;-51
2024/02/08 13:09:16;;;;;;;5.22;4.55;;;;;;;4.93;100.00;96959.22;15279952;19;20032;-52
2024/02/08 13:14:48;;;;;;;6.78;4.22;;;;;;;4.86;100.00;96944.03;15284216;19;20074;-53
2024/02/08 13:20:14;;;;;;;5.60;4.70;;;;;;;4.84;100.00;96932.69;15279692;19;20021;-53
2024/02/08 13:25:38;;;;;;;6.68;5.13;;;;;;;4.87;100.00;96921.69;15275624;19;20810;-50
2024/02/08 13:31:07;;;;;;;5.82;5.03;;;;;;;4.89;100.00;96917.84;15285869;19;20029;-52
2024/02/08 13:36:33;;;;;;;6.60;5.22;;;;;;;4.91;100.00;96921.19;15280854;19;20388;-51
2024/02/08 13:41:59;;;;;;;6.68;5.18;;;;;;;4.94;100.00;96910.19;15286386;19;20081;-54
2024/02/08 13:47:27;;;;;;;7.63;5.35;;;;;;;4.96;100.00;96914.53;15287289;19;20372;-54
2024/02/08 13:52:53;;;;;;;5.93;5.18;;;;;;;4.95;100.00;96913.69;15277250;19;20103;-53
2024/02/08 13:58:20;;;;;;;6.70;5.20;;;;;;;4.94;100.00;96899.53;15280265;19;20023;-50
2024/02/08 14:03:48;;;;;;;8.15;5.60;;;;;;;4.93;100.00;96884.50;15283745;19;20036;-51
2024/02/08 14:09:23;;;;;;;6.30;5.15;;;;;;;4.92;100.00;96869.50;15282180;19;20023;-53
2024/02/08 14:14:52;;;;;;;6.95;5.10;;;;;;;4.86;100.00;96859.50;15276997;19;20021;-53
2024/02/08 14:26:09;;;;;;;6.13;4.95;;;;;;;4.77;100.00;96845.28;15288004;19;20013;-52
2024/02/08 14:31:35;;;;;;;8.30;5.07;;;;;;;4.71;100.00;96840.59;15299668;19;20021;-55
2024/02/08 14:37:03;;;;;;;6.63;4.57;;;;;;;4.65;100.00;96843.94;15294995;19;20664;-54
2024/02/08 14:42:30;;;;;;;7.72;4.70;;;;;;;4.65;100.00;96843.09;15298177;19;20021;-53
2024/02/08 14:47:55;;;;;;;6.65;4.60;;;;;;;4.58;100.00;96842.94;15293088;19;20070;-53
2024/02/08 14:53:22;;;;;;;5.80;4.50;;;;;;;4.52;100.00;96830.22;15294149;19;20090;-52
2024/02/08 14:58:56;;;;;;;5.97;4.63;;;;;;;4.46;100.00;96826.38;15292917;19;20078;-55
2024/02/08 15:04:25;;;;;;;6.68;4.75;;;;;;;4.39;100.00;96817.38;15290014;19;20015;-53
2024/02/08 15:09:57;;;;;;;6.05;4.57;;;;;;;4.32;100.00;96793.19;15295689;19;20839;-54
2024/02/08 15:15:29;;;;;;;7.95;5.15;;;;;;;4.28;100.00;96789.16;15292997;19;20090;-54
2024/02/08 15:20:55;;;;;;;6.18;4.80;;;;;;;4.20;100.00;96763.31;15291077;19;20498;-54
2024/02/08 15:26:24;;;;;;;6.43;5.03;;;;;;;4.17;100.00;96798.31;15287602;19;20700;-52
2024/02/08 15:31:56;;;;;;;5.72;4.88;;;;;;;4.13;100.00;96784.44;15285076;19;20018;-54
2024/02/08 15:37:28;;;;;;;6.28;4.38;;;;;;;4.12;100.00;96768.63;15285693;19;20034;-56
2024/02/08 15:42:56;;;;;;;4.90;4.07;;;;;;;4.02;100.00;96774.06;15287769;19;20027;-54
2024/02/08 15:48:31;;;;;;;6.03;4.57;;;;;;;3.95;100.00;96739.25;15286985;19;20011;-55
2024/02/08 15:53:59;;;;;;;6.65;5.60;;;;;;;3.90;100.00;96733.59;15288686;19;20437;-57
2024/02/08 15:59:27;;;;;;;8.27;6.80;;;;;;;3.83;100.00;96732.53;15289833;19;20094;-55
2024/02/08 16:04:53;;;;;;;8.95;7.22;;;;;;;3.81;100.00;96729.22;15286811;19;20046;-52
2024/02/08 16:10:24;;;;;;;11.07;8.32;;;;;;;3.78;100.00;96726.88;15291222;19;20483;-54
2024/02/08 16:15:55;;;;;;;10.38;7.82;;;;;;;3.75;100.00;96724.53;15288239;19;20706;-54
2024/02/08 16:21:25;;;;;;;11.00;8.25;;;;;;;3.75;100.00;96724.53;15293819;19;20017;-51
2024/02/08 16:26:56;;;;;;;11.73;8.25;;;;;;;3.74;100.00;96721.03;15286873;19;20026;-51
2024/02/08 16:32:32;;;;;;;10.83;8.50;;;;;;;3.74;100.00;96710.38;15285330;19;20481;-53
2024/02/08 16:38:07;;;;;;;12.48;9.10;;;;;;;3.74;100.00;96706.88;15290600;19;20362;-55
2024/02/08 16:43:43;;;;;;;10.93;8.07;;;;;;;3.69;100.00;96692.22;15284733;19;20031;-52
2024/02/08 16:49:15;;;;;;;12.45;8.68;;;;;;;3.66;100.00;96692.53;15289933;19;20038;-56
2024/02/08 16:54:54;;;;;;;11.68;8.05;;;;;;;3.64;100.00;96702.50;15289655;19;20035;-56
2024/02/08 17:06:11;;;;;;;12.25;9.05;;;;;;;3.62;100.00;96698.34;15279994;19;20011;-55
2024/02/08 17:11:40;;;;;;;14.80;11.10;;;;;;;3.60;100.00;96689.69;15287538;19;20046;-54
2024/02/08 17:17:13;;;;;;;14.40;10.75;;;;;;;3.60;100.00;96703.00;15280885;19;20014;-56
2024/02/08 17:22:49;;;;;;;15.70;11.38;;;;;;;3.57;100.00;96674.03;15286443;19;20026;-54
2024/02/08 17:28:31;;;;;;;16.88;11.90;;;;;;;3.52;100.00;96671.84;15286906;19;20017;-54
2024/02/08 17:33:56;;;;;;;15.80;11.00;;;;;;;3.48;100.00;96666.00;15286490;19;20018;-54
2024/02/08 17:39:39;;;;;;;15.25;10.52;;;;;;;3.46;100.00;96661.84;15280037;19;20122;-54
2024/02/08 17:45:09;;;;;;;12.75;9.55;;;;;;;3.44;100.00;96637.22;15282755;19;20020;-53
2024/02/08 17:50:39;;;;;;;12.07;9.13;;;;;;;3.44;100.00;96682.47;15282654;19;20037;-53
2024/02/08 17:56:17;;;;;;;12.95;9.30;;;;;;;3.46;100.00;96668.00;15285291;19;20025;-55
2024/02/08 18:01:53;;;;;;;12.93;10.30;;;;;;;3.44;100.00;96654.00;15298454;19;20078;-55
2024/02/08 18:07:25;;;;;;;12.13;9.68;;;;;;;3.43;100.00;96667.47;15284888;19;20498;-51
2024/02/08 18:12:54;;;;;;;14.43;10.90;;;;;;;3.43;100.00;96659.50;15297225;19;20019;-55
2024/02/08 18:18:22;;;;;;;14.88;10.80;;;;;;;3.39;100.00;96651.00;15292651;19;20023;-54
2024/02/08 18:23:48;;;;;;;15.38;11.05;;;;;;;3.39;100.00;96643.84;15288076;19;20050;-54
2024/02/08 18:29:20;;;;;;;15.27;10.98;;;;;;;3.38;100.00;96623.53;15294662;19;20527;-53
2024/02/08 18:34:48;;;;;;;15.55;10.73;;;;;;;3.38;100.00;96628.84;15296382;19;20041;-55
2024/02/08 18:40:18;;;;;;;13.95;9.75;;;;;;;3.37;100.00;96611.22;15268607;19;20018;-51
2024/02/08 18:45:48;;;;;;;14.82;10.27;;;;;;;3.37;100.00;96616.53;15291442;19;20025;-55
2024/02/08 18:51:15;;;;;;;13.93;9.77;;;;;;;3.38;100.00;96606.75;15294860;19;20017;-55
2024/02/08 18:56:44;;;;;;;12.98;9.35;;;;;;;3.36;100.00;96601.56;15292383;19;20825;-57
2024/02/08 19:02:12;;;;;;;12.88;8.93;;;;;;;3.38;100.00;96604.91;15295532;19;20332;-54
2024/02/08 19:07:37;;;;;;;14.10;9.35;;;;;;;3.39;100.00;96587.13;15285587;19;20046;-54
2024/02/08 19:13:01;;;;;;;13.20;9.40;;;;;;;3.41;100.00;96594.94;15303781;19;20575;-56
2024/02/08 19:18:32;;;;;;;13.93;9.60;;;;;;;3.41;100.00;96590.44;15305304;19;20006;-59
2024/02/08 19:23:59;;;;;;;14.25;9.52;;;;;;;3.40;100.00;96570.16;15303196;19;20106;-55
2024/02/08 19:29:25;;;;;;;13.80;9.90;;;;;;;3.42;100.00;96564.66;15353906;19;20375;-57
2024/02/08 19:34:54;;;;;;;12.18;8.77;;;;;;;3.42;100.00;96572.66;15338731;19;20018;-53
2024/02/08 19:40:21;;;;;;;13.10;8.32;;;;;;;3.42;100.00;96569.97;15325765;19;20018;-58
2024/02/08 19:45:47;;;;;;;11.48;8.02;;;;;;;3.44;100.00;96568.00;15295580;19;20032;-56
2024/02/08 19:51:15;;;;;;;10.45;7.95;;;;;;;3.39;100.00;96582.63;15306035;19;20025;-56
2024/02/08 19:56:43;;;;;;;9.82;7.32;;;;;;;3.37;100.00;96579.28;15299625;19;20077;-57
2024/02/08 20:02:23;;;;;;;8.00;6.35;;;;;;;3.37;100.00;96542.00;15300571;19;20010;-55
2024/02/08 20:07:57;;;;;;;8.85;6.40;;;;;;;3.40;100.00;96567.50;15297105;19;20019;-56
2024/02/08 20:13:24;;;;;;;6.57;5.45;;;;;;;3.46;100.00;96566.00;15298479;19;20029;-55
2024/02/08 20:18:50;;;;;;;7.72;5.88;;;;;;;3.50;100.00;96567.34;15300123;19;20345;-56
2024/02/08 20:24:19;;;;;;;5.32;4.15;;;;;;;3.49;100.00;96545.22;15297407;19;20078;-56
2024/02/08 20:29:44;;;;;;;5.75;4.75;;;;;;;3.46;100.00;96542.06;15293109;19;20089;-55
2024/02/08 20:35:10;;;;;;;6.35;4.55;;;;;;;3.46;100.00;96542.06;15288711;19;20014;-56
2024/02/08 20:40:37;;;;;;;6.82;5.30;;;;;;;3.45;100.00;96529.75;15289303;19;20014;-54
2024/02/08 20:46:05;;;;;;;6.70;5.32;;;;;;;3.45;100.00;96527.06;15286489;19;20017;-52
2024/02/08 20:51:29;;;;;;;6.85;5.90;;;;;;;3.46;100.00;96526.09;15284978;19;20086;-53
2024/02/08 20:56:58;;;;;;;6.45;5.68;;;;;;;3.50;100.00;96519.41;15290202;19;20018;-54
2024/02/08 21:02:24;;;;;;;6.55;5.78;;;;;;;3.54;100.00;96523.44;15288778;19;20039;-54
2024/02/08 21:07:49;;;;;;;7.75;5.60;;;;;;;3.59;100.00;96518.44;15287116;19;20014;-54
2024/02/08 21:13:17;;;;;;;7.18;5.85;;;;;;;3.60;100.00;96514.78;15296312;19;20036;-53
2024/02/08 21:18:43;;;;;;;7.88;6.22;;;;;;;3.64;100.00;96516.13;15279169;19;20041;-53
2024/02/08 21:24:10;;;;;;;10.32;7.68;;;;;;;3.67;100.00;96517.59;15278527;19;20101;-54
2024/02/08 21:29:41;;;;;;;9.10;7.35;;;;;;;3.68;100.00;96514.81;15284741;19;20489;-52
2024/02/08 21:35:06;;;;;;;8.73;7.22;;;;;;;3.70;100.00;96512.78;15269410;19;20018;-55
2024/02/08 21:40:31;;;;;;;10.50;7.68;;;;;;;3.74;100.00;96509.78;15278263;19;20507;-54
2024/02/08 21:46:01;;;;;;;12.15;7.70;;;;;;;3.74;100.00;96501.81;15271098;19;20045;-54
2024/02/08 21:51:26;;;;;;;9.60;8.13;;;;;;;3.75;100.00;96500.81;15280530;19;20028;-52
2024/02/08 21:56:52;;;;;;;9.45;7.68;;;;;;;3.76;100.00;96505.13;15280333;19;20017;-56
2024/02/08 22:02:19;;;;;;;11.38;8.23;;;;;;;3.79;100.00;96494.16;15284481;19;20024;-52
2024/02/08 22:07:51;;;;;;;12.50;8.90;;;;;;;3.81;100.00;96495.66;15273026;19;20021;-53
2024/02/08 22:13:16;;;;;;;13.10;9.50;;;;;;;3.84;100.00;96494.47;15293369;19;20066;-54
2024/02/08 22:18:45;;;;;;;14.63;9.80;;;;;;;3.88;100.00;96500.34;15278699;19;20011;-54
2024/02/08 22:24:17;;;;;;;15.80;10.15;;;;;;;3.90;100.00;96485.84;15276223;19;20025;-54
2024/02/08 22:29:44;;;;;;;16.95;11.00;;;;;;;3.96;100.00;96487.81;15279198;19;20029;-53
2024/02/08 22:35:12;;;;;;;16.23;11.38;;;;;;;4.05;100.00;96490.50;15273983;19;20057;-52
2024/02/08 22:40:37;;;;;;;17.27;11.07;;;;;;;4.12;100.00;96486.97;15282721;19;20022;-51
2024/02/08 22:46:01;;;;;;;16.77;10.90;;;;;;;4.18;100.00;96495.31;15285397;19;20017;-52
2024/02/08 22:51:32;;;;;;;17.33;11.40;;;;;;;4.24;100.00;96500.78;15299218;19;20029;-51
2024/02/08 22:56:57;;;;;;;17.27;11.27;;;;;;;4.29;100.00;96506.44;15290336;19;20475;-52
2024/02/08 23:02:22;;;;;;;15.70;10.68;;;;;;;4.35;100.00;96496.09;15293881;19;20341;-56
2024/02/08 23:07:51;;;;;;;15.73;10.75;;;;;;;4.36;100.00;96492.44;15283972;19;20021;-51
2024/02/08 23:13:18;;;;;;;17.70;11.45;;;;;;;4.37;100.00;96494.09;15295174;19;20024;-54
2024/02/08 23:18:44;;;;;;;17.17;11.07;;;;;;;4.40;100.00;96499.09;15290572;19;20015;-54
2024/02/08 23:24:12;;;;;;;17.25;11.20;;;;;;;4.42;100.00;96487.25;15287734;19;20015;-52
2024/02/08 23:29:36;;;;;;;16.67;11.07;;;;;;;4.46;100.00;96483.25;15286376;19;20356;-52
2024/02/08 23:35:01;;;;;;;15.43;10.68;;;;;;;4.50;100.00;96486.41;15290465;19;20356;-51
2024/02/08 23:40:28;;;;;;;17.05;11.00;;;;;;;4.57;100.00;96484.72;15290398;19;20022;-56
2024/02/08 23:45:54;;;;;;;16.65;11.25;;;;;;;4.66;100.00;96484.69;15282386;19;20015;-59
2024/02/08 23:51:21;;;;;;;16.40;10.90;;;;;;;4.74;100.00;96490.81;15292971;19;20082;-52
2024/02/08 23:56:48;;;;;;;17.33;11.32;;;;;;;4.85;100.00;96497.63;15288396;19;20406;-52
